createdAt,value
2018-05-06T00:00:34.463Z,15.08
2018-05-06T00:03:02.931Z,15.06
2018-05-06T00:05:31.336Z,15.04
2018-05-06T00:07:59.724Z,14.91
2018-05-06T00:10:28.204Z,14.88
2018-05-06T00:12:56.786Z,14.86
2018-05-06T00:15:25.262Z,14.76
2018-05-06T00:17:55.127Z,14.79
2018-05-06T00:20:23.644Z,14.74
2018-05-06T00:22:52.104Z,14.67
2018-05-06T00:25:20.531Z,14.67
2018-05-06T00:27:50.911Z,14.70
2018-05-06T00:30:19.363Z,14.69
2018-05-06T00:32:47.959Z,14.67
2018-05-06T00:35:16.402Z,14.64
2018-05-06T00:37:44.848Z,14.61
2018-05-06T00:40:13.251Z,14.67
2018-05-06T00:42:41.688Z,14.56
2018-05-06T00:45:10.122Z,14.56
2018-05-06T00:47:38.547Z,14.55
2018-05-06T00:50:06.952Z,14.51
2018-05-06T00:52:35.367Z,14.54
2018-05-06T00:55:03.715Z,14.47
2018-05-06T00:57:32.193Z,14.37
2018-05-06T01:00:00.631Z,14.37
2018-05-06T01:02:30.356Z,14.39
2018-05-06T01:04:58.775Z,14.45
2018-05-06T01:07:28.470Z,14.38
2018-05-06T01:09:57.973Z,14.33
2018-05-06T01:12:26.322Z,14.37
2018-05-06T01:14:54.834Z,14.34
2018-05-06T01:17:23.236Z,14.32
2018-05-06T01:19:53.123Z,14.30
2018-05-06T01:22:21.548Z,14.21
2018-05-06T01:24:49.963Z,14.20
2018-05-06T01:27:18.376Z,14.15
2018-05-06T01:29:46.808Z,14.12
2018-05-06T01:32:15.336Z,14.16
2018-05-06T01:34:43.697Z,14.07
2018-05-06T01:37:12.118Z,14.18
2018-05-06T01:39:40.520Z,14.21
2018-05-06T01:42:08.982Z,14.08
2018-05-06T01:44:39.339Z,14.01
2018-05-06T01:47:07.787Z,14.03
2018-05-06T01:49:36.279Z,14.05
2018-05-06T01:52:04.638Z,14.01
2018-05-06T01:54:34.767Z,14.02
2018-05-06T01:57:03.230Z,13.88
2018-05-06T01:59:31.659Z,13.90
2018-05-06T02:02:00.163Z,13.90
2018-05-06T02:04:28.576Z,13.94
2018-05-06T02:06:56.998Z,13.89
2018-05-06T02:09:25.408Z,13.79
2018-05-06T02:11:53.808Z,13.76
2018-05-06T02:14:23.783Z,13.76
2018-05-06T02:16:52.195Z,13.66
2018-05-06T02:19:21.783Z,13.70
2018-05-06T02:21:50.222Z,13.65
2018-05-06T02:24:20.035Z,13.67
2018-05-06T02:26:50.262Z,13.65
2018-05-06T02:29:18.719Z,13.67
2018-05-06T02:31:47.183Z,13.65
2018-05-06T02:34:15.902Z,13.63
2018-05-06T02:36:44.340Z,13.60
2018-05-06T02:39:12.764Z,13.50
2018-05-06T02:41:44.675Z,13.48
2018-05-06T02:44:13.107Z,13.46
2018-05-06T02:46:41.495Z,13.42
2018-05-06T02:49:09.900Z,13.40
2018-05-06T02:51:38.263Z,13.35
2018-05-06T02:54:06.713Z,13.35
2018-05-06T02:56:35.130Z,13.29
2018-05-06T02:59:03.495Z,13.27
2018-05-06T03:01:31.912Z,13.25
2018-05-06T03:04:02.067Z,13.25
2018-05-06T03:06:31.995Z,13.24
2018-05-06T03:09:02.467Z,13.20
2018-05-06T03:11:32.418Z,13.18
2018-05-06T03:14:00.882Z,13.11
2018-05-06T03:16:29.352Z,13.20
2018-05-06T03:18:57.768Z,13.13
2018-05-06T03:21:26.167Z,13.17
2018-05-06T03:23:56.570Z,13.12
2018-05-06T03:26:25.039Z,13.11
2018-05-06T03:28:53.467Z,13.10
2018-05-06T03:31:22.195Z,13.09
2018-05-06T03:33:50.603Z,13.01
2018-05-06T03:36:20.987Z,13.00
2018-05-06T03:38:49.727Z,13.06
2018-05-06T03:41:18.093Z,13.06
2018-05-06T03:43:46.525Z,13.04
2018-05-06T03:46:14.939Z,13.06
2018-05-06T03:48:43.306Z,13.00
2018-05-06T03:51:11.714Z,12.99
2018-05-06T03:53:40.143Z,12.90
2018-05-06T04:09:30.777Z,12.93
2018-05-06T04:12:00.539Z,12.95
2018-05-06T04:14:29.067Z,12.85
2018-05-06T04:16:57.473Z,12.97
2018-05-06T04:19:26.243Z,12.88
2018-05-06T04:21:54.662Z,12.89
2018-05-06T04:24:23.012Z,12.93
2018-05-06T04:26:51.529Z,12.97
2018-05-06T04:29:19.911Z,12.90
2018-05-06T04:31:48.396Z,12.99
2018-05-06T04:34:16.908Z,13.03
2018-05-06T04:36:45.323Z,13.03
2018-05-06T04:39:13.738Z,13.11
2018-05-06T04:41:42.116Z,13.04
2018-05-06T04:44:10.618Z,13.13
2018-05-06T04:46:40.710Z,13.20
2018-05-06T04:49:09.117Z,13.23
2018-05-06T04:51:37.476Z,13.23
2018-05-06T04:54:05.894Z,13.29
2018-05-06T04:56:34.258Z,13.34
2018-05-06T04:59:02.711Z,13.46
2018-05-06T05:01:31.104Z,13.49
2018-05-06T05:03:59.493Z,13.43
2018-05-06T05:06:27.962Z,13.48
2018-05-06T05:08:56.396Z,13.66
2018-05-06T05:11:24.833Z,13.79
2018-05-06T05:13:53.309Z,13.67
2018-05-06T05:16:21.727Z,13.82
2018-05-06T05:18:50.186Z,13.85
2018-05-06T05:21:18.608Z,14.02
2018-05-06T05:23:46.991Z,14.16
2018-05-06T05:26:15.411Z,14.24
2018-05-06T05:28:43.867Z,14.43
2018-05-06T05:31:12.239Z,14.61
2018-05-06T05:33:40.676Z,14.73
2018-05-06T05:36:09.112Z,14.72
2018-05-06T05:38:37.486Z,14.80
2018-05-06T05:41:07.463Z,15.05
2018-05-06T05:43:35.925Z,15.06
2018-05-06T05:46:04.280Z,15.30
2018-05-06T05:48:32.688Z,15.45
2018-05-06T05:51:01.155Z,15.72
2018-05-06T05:53:29.566Z,15.75
2018-05-06T05:55:57.998Z,15.78
2018-05-06T05:58:26.418Z,15.98
2018-05-06T06:00:54.798Z,16.08
2018-05-06T06:03:23.217Z,16.22
2018-05-06T06:05:52.767Z,16.30
2018-05-06T06:08:21.184Z,16.45
2018-05-06T06:10:49.607Z,16.48
2018-05-06T06:13:21.643Z,16.27
2018-05-06T06:15:50.098Z,16.38
2018-05-06T06:18:19.550Z,16.57
2018-05-06T06:20:48.563Z,16.73
2018-05-06T06:23:16.963Z,17.02
2018-05-06T06:25:44.375Z,17.22
2018-05-06T06:28:14.788Z,17.56
2018-05-06T06:30:43.179Z,17.73
2018-05-06T06:33:10.517Z,17.90
2018-05-06T06:35:41.671Z,17.87
2018-05-06T06:38:11.155Z,17.96
2018-05-06T06:40:39.574Z,18.24
2018-05-06T06:43:08.321Z,18.35
2018-05-06T06:45:36.719Z,18.63
2018-05-06T06:48:04.101Z,18.82
2018-05-06T06:50:33.991Z,18.96
2018-05-06T06:53:02.406Z,19.13
2018-05-06T06:55:30.594Z,19.33
2018-05-06T06:57:58.912Z,19.83
2018-05-06T07:00:27.385Z,20.15
2018-05-06T07:02:54.734Z,20.53
2018-05-06T07:05:23.224Z,20.35
2018-05-06T07:07:51.675Z,20.92
2018-05-06T07:10:19.032Z,21.46
2018-05-06T07:12:48.229Z,21.86
2018-05-06T07:15:15.613Z,21.92
2018-05-06T07:17:45.057Z,22.15
2018-05-06T07:20:12.395Z,22.53
2018-05-06T07:22:41.960Z,22.86
2018-05-06T07:25:10.344Z,23.23
2018-05-06T07:27:37.690Z,23.34
2018-05-06T07:30:06.409Z,23.58
2018-05-06T07:32:34.731Z,23.68
2018-05-06T07:35:02.830Z,24.12
2018-05-06T07:37:31.047Z,24.34
2018-05-06T07:39:59.378Z,24.52
2018-05-06T07:42:26.750Z,24.95
2018-05-06T07:44:55.081Z,25.02
2018-05-06T07:47:22.396Z,25.62
2018-05-06T07:49:50.822Z,25.49
2018-05-06T07:52:19.204Z,26.08
2018-05-06T07:54:47.422Z,25.58
2018-05-06T07:57:14.759Z,25.83
2018-05-06T07:59:43.143Z,25.64
2018-05-06T08:02:11.423Z,25.80
2018-05-06T08:04:39.830Z,25.62
2018-05-06T08:07:07.136Z,25.97
2018-05-06T08:09:35.405Z,25.78
2018-05-06T08:12:03.615Z,26.00
2018-05-06T08:14:32.040Z,26.22
2018-05-06T08:16:59.324Z,26.76
2018-05-06T08:19:27.503Z,27.27
2018-05-06T08:21:55.826Z,27.78
2018-05-06T08:24:24.016Z,28.38
2018-05-06T08:26:52.422Z,28.31
2018-05-06T08:29:20.542Z,28.07
2018-05-06T08:31:48.691Z,28.17
2018-05-06T08:34:16.815Z,28.08
2018-05-06T08:36:45.108Z,28.82
2018-05-06T08:39:13.281Z,29.35
2018-05-06T08:41:42.623Z,28.56
2018-05-06T08:44:10.874Z,29.06
2018-05-06T08:46:39.152Z,28.90
2018-05-06T08:49:07.339Z,28.95
2018-05-06T08:51:35.572Z,29.25
2018-05-06T08:54:04.300Z,27.91
2018-05-06T08:56:32.987Z,27.86
2018-05-06T08:59:01.247Z,28.05
2018-05-06T09:01:29.445Z,28.59
2018-05-06T09:03:57.692Z,29.03
2018-05-06T09:06:25.844Z,29.93
2018-05-06T09:08:54.007Z,29.61
2018-05-06T09:11:22.246Z,29.90
2018-05-06T09:13:50.689Z,29.90
2018-05-06T09:16:17.993Z,29.55
2018-05-06T09:18:46.665Z,29.56
2018-05-06T09:21:15.083Z,29.93
2018-05-06T09:23:43.305Z,29.74
2018-05-06T09:26:11.883Z,30.11
2018-05-06T09:28:40.120Z,30.05
2018-05-06T09:31:08.430Z,29.57
2018-05-06T09:33:36.659Z,30.27
2018-05-06T09:36:04.935Z,30.03
2018-05-06T09:38:33.191Z,29.95
2018-05-06T09:41:01.406Z,29.65
2018-05-06T09:43:30.290Z,29.28
2018-05-06T09:45:58.441Z,29.85
2018-05-06T09:48:26.729Z,30.51
2018-05-06T09:50:54.980Z,30.44
2018-05-06T09:53:23.183Z,30.12
2018-05-06T09:55:51.326Z,30.71
2018-05-06T09:58:19.526Z,30.01
2018-05-06T10:00:47.757Z,30.81
2018-05-06T10:03:16.180Z,30.82
2018-05-06T10:05:44.290Z,31.25
2018-05-06T10:08:12.781Z,30.97
2018-05-06T10:10:41.125Z,31.26
2018-05-06T10:13:09.370Z,31.05
2018-05-06T10:15:37.804Z,30.41
2018-05-06T10:18:06.150Z,30.82
2018-05-06T10:20:34.428Z,30.44
2018-05-06T10:23:02.679Z,30.75
2018-05-06T10:25:30.928Z,30.62
2018-05-06T10:27:59.224Z,30.60
2018-05-06T10:30:27.403Z,30.51
2018-05-06T10:32:55.633Z,30.90
2018-05-06T10:35:25.013Z,30.52
2018-05-06T10:37:53.434Z,30.01
2018-05-06T10:40:21.853Z,29.67
2018-05-06T10:42:51.317Z,29.68
2018-05-06T10:45:19.728Z,29.63
2018-05-06T10:47:48.167Z,29.47
2018-05-06T10:50:16.580Z,29.22
2018-05-06T10:52:45.089Z,28.73
2018-05-06T10:55:13.403Z,29.27
2018-05-06T10:57:41.624Z,29.38
2018-05-06T11:00:10.095Z,28.50
2018-05-06T11:02:38.511Z,28.21
2018-05-06T11:05:06.804Z,28.62
2018-05-06T11:07:35.186Z,28.29
2018-05-06T11:10:04.027Z,27.98
2018-05-06T11:12:32.241Z,28.36
2018-05-06T11:15:00.563Z,28.20
2018-05-06T11:17:28.875Z,28.36
2018-05-06T11:19:57.323Z,28.06
2018-05-06T11:22:26.793Z,27.66
2018-05-06T11:24:56.119Z,27.60
2018-05-06T11:27:24.535Z,27.13
2018-05-06T11:29:52.971Z,26.92
2018-05-06T11:32:21.461Z,26.68
2018-05-06T11:34:50.879Z,26.58
2018-05-06T11:37:19.354Z,26.42
2018-05-06T11:39:47.767Z,25.98
2018-05-06T11:42:16.236Z,25.57
2018-05-06T11:44:44.670Z,25.71
2018-05-06T11:47:13.084Z,25.41
2018-05-06T11:49:41.569Z,25.41
2018-05-06T11:52:10.044Z,25.31
2018-05-06T11:54:38.495Z,25.57
2018-05-06T11:57:06.869Z,25.70
2018-05-06T11:59:35.250Z,25.62
2018-05-06T12:02:03.768Z,25.92
2018-05-06T12:04:33.111Z,25.91
2018-05-06T12:07:01.563Z,25.60
2018-05-06T12:09:30.043Z,25.27
2018-05-06T12:11:58.488Z,25.42
2018-05-06T12:14:27.990Z,25.20
2018-05-06T12:16:56.408Z,25.08
2018-05-06T12:19:24.845Z,25.19
2018-05-06T12:21:53.394Z,25.18
2018-05-06T12:24:21.738Z,25.00
2018-05-06T12:26:50.212Z,25.12
2018-05-06T12:29:18.855Z,24.96
2018-05-06T12:31:47.350Z,24.96
2018-05-06T12:34:15.819Z,24.96
2018-05-06T12:36:44.226Z,24.86
2018-05-06T12:39:13.457Z,24.93
2018-05-06T12:41:41.923Z,25.07
2018-05-06T12:44:10.416Z,25.00
2018-05-06T12:46:38.862Z,25.00
2018-05-06T12:49:07.303Z,24.87
2018-05-06T12:51:35.711Z,24.99
2018-05-06T12:54:04.210Z,24.98
2018-05-06T12:56:32.694Z,24.95
2018-05-06T12:59:01.071Z,24.76
2018-05-06T13:01:29.500Z,24.59
2018-05-06T13:03:58.900Z,24.45
2018-05-06T13:06:27.271Z,24.45
2018-05-06T13:08:56.167Z,24.56
2018-05-06T13:11:24.636Z,24.61
2018-05-06T13:13:53.052Z,24.62
2018-05-06T13:16:22.915Z,24.59
2018-05-06T13:18:51.396Z,24.35
2018-05-06T13:21:19.871Z,24.07
2018-05-06T13:23:48.299Z,23.85
2018-05-06T13:26:16.766Z,24.03
2018-05-06T13:28:45.119Z,24.06
2018-05-06T13:31:13.643Z,24.13
2018-05-06T13:33:42.064Z,24.06
2018-05-06T13:36:11.480Z,23.98
2018-05-06T13:38:39.975Z,23.85
2018-05-06T13:41:08.396Z,24.00
2018-05-06T13:43:37.932Z,23.94
2018-05-06T13:46:06.432Z,23.89
2018-05-06T13:48:34.950Z,23.74
2018-05-06T13:51:03.415Z,23.63
2018-05-06T13:53:31.884Z,23.53
2018-05-06T13:56:00.356Z,23.61
2018-05-06T13:58:28.783Z,23.71
2018-05-06T14:00:58.309Z,23.84
2018-05-06T14:03:27.586Z,23.80
2018-05-06T14:05:56.094Z,23.91
2018-05-06T14:08:24.602Z,23.85
2018-05-06T14:10:53.074Z,23.66
2018-05-06T14:13:22.521Z,23.70
2018-05-06T14:15:51.019Z,23.67
2018-05-06T14:18:19.418Z,23.76
2018-05-06T14:20:48.843Z,23.63
2018-05-06T14:23:17.324Z,23.65
2018-05-06T14:25:46.956Z,23.68
2018-05-06T14:28:15.659Z,23.62
2018-05-06T14:30:44.062Z,23.68
2018-05-06T14:33:12.492Z,23.57
2018-05-06T14:35:41.916Z,23.47
2018-05-06T14:38:10.354Z,23.42
2018-05-06T14:40:38.704Z,23.50
2018-05-06T14:43:07.131Z,23.55
2018-05-06T14:45:36.478Z,23.61
2018-05-06T14:48:11.097Z,23.68
2018-05-06T14:50:39.550Z,23.66
2018-05-06T14:53:09.128Z,23.76
2018-05-06T14:55:37.588Z,23.56
2018-05-06T14:58:07.033Z,23.53
2018-05-06T15:00:35.512Z,23.56
2018-05-06T15:03:04.984Z,23.53
2018-05-06T15:05:33.408Z,23.40
2018-05-06T15:08:01.806Z,23.22
2018-05-06T15:10:30.343Z,23.25
2018-05-06T15:12:58.730Z,23.24
2018-05-06T15:15:27.152Z,23.29
2018-05-06T15:17:55.642Z,23.24
2018-05-06T15:20:24.076Z,23.32
2018-05-06T15:22:52.594Z,23.36
2018-05-06T15:25:21.769Z,23.36
2018-05-06T15:27:51.223Z,23.45
2018-05-06T15:30:19.716Z,23.24
2018-05-06T15:32:48.800Z,23.17
2018-05-06T15:35:17.232Z,23.13
2018-05-06T15:37:44.657Z,23.18
2018-05-06T15:40:13.083Z,23.03
2018-05-06T15:42:41.531Z,22.92
2018-05-06T15:45:09.972Z,23.13
2018-05-06T15:47:38.466Z,23.07
2018-05-06T15:50:08.152Z,23.08
2018-05-06T15:52:38.281Z,23.10
2018-05-06T15:55:06.708Z,22.98
2018-05-06T15:57:35.143Z,22.91
2018-05-06T16:00:05.136Z,22.93
2018-05-06T16:02:49.931Z,22.87
2018-05-06T16:05:19.633Z,22.85
2018-05-06T16:07:48.107Z,22.85
2018-05-06T16:10:18.096Z,22.70
2018-05-06T16:12:46.532Z,22.74
2018-05-06T16:15:15.173Z,22.80
2018-05-06T16:17:43.812Z,22.83
2018-05-06T16:20:12.404Z,22.83
2018-05-06T16:22:40.955Z,22.93
2018-05-06T16:25:09.328Z,22.78
2018-05-06T16:27:37.742Z,22.78
2018-05-06T16:30:07.597Z,22.64
2018-05-06T16:32:37.334Z,22.65
2018-05-06T16:35:05.765Z,22.55
2018-05-06T16:37:34.187Z,22.48
2018-05-06T16:40:03.664Z,22.53
2018-05-06T16:42:33.241Z,22.46
2018-05-06T16:45:01.685Z,22.36
2018-05-06T16:47:30.811Z,22.27
2018-05-06T16:50:00.591Z,22.22
2018-05-06T16:52:30.527Z,22.22
2018-05-06T16:54:58.987Z,22.22
2018-05-06T16:57:27.455Z,22.23
2018-05-06T16:59:55.862Z,22.18
2018-05-06T17:02:24.384Z,22.12
2018-05-06T17:04:53.877Z,22.16
2018-05-06T17:07:23.732Z,22.12
2018-05-06T17:09:52.219Z,22.15
2018-05-06T17:12:23.064Z,22.07
2018-05-06T17:14:51.849Z,21.98
2018-05-06T17:17:20.287Z,21.93
2018-05-06T17:19:48.737Z,21.94
2018-05-06T17:22:18.674Z,21.95
2018-05-06T17:24:47.109Z,21.86
2018-05-06T17:27:16.679Z,21.76
2018-05-06T17:29:46.189Z,21.75
2018-05-06T17:32:14.611Z,21.78
2018-05-06T17:34:43.047Z,21.72
2018-05-06T17:37:11.418Z,21.61
2018-05-06T17:39:41.419Z,21.49
2018-05-06T17:42:09.877Z,21.50
2018-05-06T17:44:40.927Z,21.38
2018-05-06T17:47:10.375Z,21.42
2018-05-06T17:49:38.826Z,21.25
2018-05-06T17:52:07.238Z,21.26
2018-05-06T17:54:37.144Z,21.12
2018-05-06T17:57:05.592Z,20.98
2018-05-06T17:59:34.038Z,20.99
2018-05-06T18:02:05.591Z,21.06
2018-05-06T18:04:34.088Z,21.03
2018-05-06T18:07:02.603Z,20.91
2018-05-06T18:09:31.088Z,20.82
2018-05-06T18:11:59.511Z,20.81
2018-05-06T18:14:28.041Z,20.73
2018-05-06T18:16:56.443Z,20.59
2018-05-06T18:19:24.925Z,20.66
2018-05-06T18:21:53.635Z,20.47
2018-05-06T18:24:23.616Z,20.48
2018-05-06T18:26:52.085Z,20.34
2018-05-06T18:29:20.537Z,20.33
2018-05-06T18:31:49.024Z,20.36
2018-05-06T18:34:17.459Z,20.29
2018-05-06T18:36:47.272Z,20.13
2018-05-06T18:39:15.667Z,20.05
2018-05-06T18:41:44.176Z,19.84
2018-05-06T18:44:12.648Z,19.89
2018-05-06T18:46:41.116Z,19.71
2018-05-06T18:49:09.503Z,19.72
2018-05-06T18:51:37.959Z,19.81
2018-05-06T18:54:06.384Z,19.69
2018-05-06T18:56:34.882Z,19.66
2018-05-06T18:59:03.368Z,19.50
2018-05-06T19:01:31.821Z,19.64
2018-05-06T19:04:00.264Z,19.62
2018-05-06T19:06:28.741Z,19.62
2018-05-06T19:08:58.609Z,19.44
2018-05-06T19:11:27.015Z,19.40
2018-05-06T19:13:55.487Z,19.34
2018-05-06T19:16:25.668Z,19.51
2018-05-06T19:18:54.098Z,19.62
2018-05-06T19:21:22.567Z,19.31
2018-05-06T19:23:51.041Z,19.25
2018-05-06T19:26:19.496Z,19.26
2018-05-06T19:28:47.867Z,19.09
2018-05-06T19:31:16.467Z,19.08
2018-05-06T19:33:44.836Z,19.10
2018-05-06T19:36:14.899Z,19.00
2018-05-06T19:38:43.323Z,18.99
2018-05-06T19:41:11.811Z,18.92
2018-05-06T19:43:40.255Z,18.91
2018-05-06T19:46:08.652Z,18.89
2018-05-06T19:48:38.919Z,18.81
2018-05-06T19:51:07.389Z,18.83
2018-05-06T19:53:35.840Z,18.89
2018-05-06T19:56:06.214Z,18.68
2018-05-06T19:58:36.376Z,18.56
2018-05-06T20:01:04.770Z,18.63
2018-05-06T20:03:33.151Z,18.63
2018-05-06T20:06:01.578Z,18.55
2018-05-06T20:08:30.011Z,18.57
2018-05-06T20:10:58.443Z,18.56
2018-05-06T20:13:26.870Z,18.54
2018-05-06T20:16:02.974Z,18.54
2018-05-06T20:18:34.805Z,18.45
2018-05-06T20:21:04.947Z,18.36
2018-05-06T20:23:33.327Z,18.38
2018-05-06T20:26:05.353Z,18.20
2018-05-06T20:28:35.268Z,18.30
2018-05-06T20:31:03.646Z,18.23
2018-05-06T20:33:32.011Z,18.27
2018-05-06T20:36:00.336Z,18.10
2018-05-06T20:38:28.862Z,18.11
2018-05-06T20:40:58.838Z,17.95
2018-05-06T20:43:27.262Z,18.02
2018-05-06T20:45:55.773Z,17.96
2018-05-06T20:48:26.356Z,17.90
2018-05-06T20:50:54.803Z,18.02
2018-05-06T20:53:25.123Z,17.91
2018-05-06T20:55:54.902Z,17.87
2018-05-06T20:58:23.315Z,17.81
2018-05-06T21:00:55.829Z,17.69
2018-05-06T21:03:24.225Z,17.76
2018-05-06T21:05:52.564Z,17.59
2018-05-06T21:08:20.916Z,17.65
2018-05-06T21:10:51.479Z,17.70
2018-05-06T21:13:19.900Z,17.61
2018-05-06T21:15:48.294Z,17.50
2018-05-06T21:18:22.798Z,17.63
2018-05-06T21:20:53.205Z,17.47
2018-05-06T21:23:25.161Z,17.41
2018-05-06T21:25:55.730Z,17.22
2018-05-06T21:28:24.087Z,17.40
2018-05-06T21:30:52.444Z,17.30
2018-05-06T21:33:20.913Z,17.18
2018-05-06T21:35:49.320Z,17.35
2018-05-06T21:38:19.768Z,17.24
2018-05-06T21:40:48.093Z,17.22
2018-05-06T21:43:16.656Z,17.16
2018-05-06T21:45:44.917Z,16.93
2018-05-06T21:48:13.284Z,17.00
2018-05-06T21:50:41.971Z,16.87
2018-05-06T21:53:13.883Z,16.77
2018-05-06T21:55:42.327Z,16.81
2018-05-06T21:58:10.703Z,16.80
2018-05-06T22:00:39.114Z,16.67
2018-05-06T22:03:11.715Z,16.53
2018-05-06T22:05:40.067Z,16.50
2018-05-06T22:08:08.463Z,16.46
2018-05-06T22:10:36.896Z,16.28
2018-05-06T22:13:05.291Z,16.15
2018-05-06T22:15:33.695Z,16.07
2018-05-06T22:18:03.881Z,16.08
2018-05-06T22:20:32.670Z,16.25
2018-05-06T22:23:03.043Z,16.10
2018-05-06T22:25:31.455Z,16.22
2018-05-06T22:27:59.848Z,16.16
2018-05-06T22:30:28.315Z,16.17
2018-05-06T22:33:00.727Z,16.10
2018-05-06T22:35:30.548Z,16.05
2018-05-06T22:38:00.424Z,16.19
2018-05-06T22:40:28.791Z,16.28
2018-05-06T22:42:57.178Z,16.23
2018-05-06T22:45:27.157Z,16.03
2018-05-06T22:47:55.532Z,16.08
2018-05-06T22:50:23.975Z,16.26
2018-05-06T22:52:52.351Z,16.03
2018-05-06T22:55:20.759Z,15.79
2018-05-06T22:57:52.744Z,15.79
2018-05-06T23:00:21.151Z,15.65
2018-05-06T23:02:49.528Z,15.55
2018-05-06T23:05:17.984Z,15.68
2018-05-06T23:07:46.367Z,15.54
2018-05-06T23:10:14.733Z,15.45
2018-05-06T23:12:43.131Z,15.41
2018-05-06T23:15:11.551Z,15.29
2018-05-06T23:17:39.907Z,15.22
2018-05-06T23:20:09.789Z,15.23
2018-05-06T23:22:38.232Z,15.18
2018-05-06T23:25:06.652Z,15.09
2018-05-06T23:27:35.051Z,15.00
2018-05-06T23:30:03.823Z,14.95
2018-05-06T23:32:32.195Z,14.94
2018-05-06T23:35:00.561Z,14.98
2018-05-06T23:37:29.011Z,15.02
2018-05-06T23:39:57.353Z,14.88
2018-05-06T23:42:25.815Z,14.76
2018-05-06T23:44:54.175Z,14.69
2018-05-06T23:47:22.647Z,14.68
2018-05-06T23:49:53.204Z,14.93
2018-05-06T23:52:21.647Z,14.87
2018-05-06T23:54:50.105Z,14.87
2018-05-06T23:57:18.522Z,14.73
2018-05-06T23:59:47.227Z,14.77
